Time;durP1;ratioP1;P1;durP2;ratioP2;P2;SDS_P1;SDS_P2;PMS_P1;PMS_P2;Temp;Humidity;BMP_temperature;BMP_pressure;BME280_temperature;BME280_humidity;BME280_pressure;Samples;Min_cycle;Max_cycle;Signal;HPM_P1;HPM_P2
2022/12/02 00:02:29;;;;;;;18.30;7.40;;;6.20;99.90;;;5.86;100.00;101862.91;5146891;28;20046;-67
2022/12/02 00:05:07;;;;;;;25.67;8.93;;;6.20;99.90;;;5.86;100.00;101857.72;5147241;28;20559;-69
2022/12/02 00:07:39;;;;;;;21.85;8.60;;;6.20;99.90;;;5.84;100.00;101854.13;5146840;28;20058;-69
2022/12/02 00:10:24;;;;;;;23.95;8.43;;;6.20;99.90;;;5.86;100.00;101857.72;5145919;28;20054;-69
2022/12/02 00:13:05;;;;;;;24.27;8.80;;;6.20;99.90;;;5.83;100.00;101858.41;5146854;28;20082;-69
2022/12/02 00:15:41;;;;;;;24.23;8.93;;;6.10;99.90;;;5.81;100.00;101848.75;5145369;28;20129;-69
2022/12/02 00:18:16;;;;;;;20.90;8.77;;;6.10;99.90;;;5.82;100.00;101855.72;5145454;28;20106;-69
2022/12/02 00:20:48;;;;;;;23.55;8.10;;;6.10;99.90;;;5.78;100.00;101841.66;5146642;28;20082;-69
2022/12/02 00:23:24;;;;;;;22.88;8.05;;;6.10;99.90;;;5.82;100.00;101835.03;5146485;28;20138;-69
2022/12/02 00:25:57;;;;;;;18.67;6.93;;;6.10;99.90;;;5.82;100.00;101841.09;5145210;28;20065;-69
2022/12/02 00:28:29;;;;;;;18.88;7.03;;;6.10;99.90;;;5.84;100.00;101847.28;5146542;28;20046;-69
2022/12/02 00:31:02;;;;;;;21.85;8.57;;;6.10;99.90;;;5.85;100.00;101837.81;5145123;28;20050;-68
2022/12/02 00:33:34;;;;;;;21.85;7.90;;;6.10;99.90;;;5.82;100.00;101847.97;5146389;28;20130;-69
2022/12/02 00:36:07;;;;;;;21.52;8.10;;;6.10;99.90;;;5.79;100.00;101839.97;5146260;28;20049;-69
2022/12/02 00:38:39;;;;;;;17.77;7.20;;;6.10;99.90;;;5.77;100.00;101847.63;5145168;28;20057;-67
2022/12/02 00:41:13;;;;;;;23.30;8.10;;;6.00;99.90;;;5.77;100.00;101846.75;5144852;28;20050;-66
2022/12/02 00:46:35;;;;;;;19.52;7.75;;;6.00;99.90;;;5.76;100.00;101834.59;5144890;28;20047;-69
2022/12/02 00:49:10;;;;;;;19.20;7.07;;;6.00;99.90;;;5.72;100.00;101828.28;5143871;28;20411;-66
2022/12/02 00:51:44;;;;;;;22.88;8.38;;;6.00;99.90;;;5.71;100.00;101823.91;5145931;28;20043;-68
2022/12/02 00:54:16;;;;;;;17.80;6.82;;;6.00;99.90;;;5.67;100.00;101815.06;5145877;28;20047;-68
2022/12/02 00:56:51;;;;;;;20.70;8.63;;;5.90;99.90;;;5.64;100.00;101827.75;5145021;28;20055;-69
2022/12/02 00:59:23;;;;;;;21.77;7.80;;;5.90;99.90;;;5.65;100.00;101837.31;5144723;28;20049;-69
2022/12/02 01:01:55;;;;;;;21.23;7.38;;;5.90;99.90;;;5.63;100.00;101832.81;5145838;28;20049;-69
2022/12/02 01:04:27;;;;;;;19.05;7.00;;;5.90;99.90;;;5.63;100.00;101832.81;5145841;28;20042;-68
2022/12/02 01:06:59;;;;;;;18.20;7.60;;;5.90;99.90;;;5.63;100.00;101831.13;5145706;28;20066;-68
2022/12/02 01:09:32;;;;;;;21.23;7.63;;;5.90;99.90;;;5.63;100.00;101823.38;5144581;28;20057;-69
2022/12/02 01:12:05;;;;;;;20.58;7.40;;;5.90;99.90;;;5.61;100.00;101819.78;5144322;28;20051;-69
2022/12/02 01:14:37;;;;;;;18.65;7.60;;;5.90;99.90;;;5.59;100.00;101821.34;5144243;28;20042;-69
2022/12/02 01:17:10;;;;;;;18.17;7.25;;;5.90;99.90;;;5.56;100.00;101813.38;5144442;28;20469;-68
2022/12/02 01:19:42;;;;;;;17.95;7.13;;;5.80;99.90;;;5.56;100.00;101821.16;5144661;28;20047;-68
2022/12/02 01:22:14;;;;;;;15.85;6.18;;;5.80;99.90;;;5.58;100.00;101819.56;5143960;28;20102;-69
2022/12/02 01:24:46;;;;;;;16.58;6.43;;;5.80;99.90;;;5.59;100.00;101823.94;5145292;28;20047;-69
2022/12/02 01:27:20;;;;;;;19.23;7.38;;;5.80;99.90;;;5.59;100.00;101821.34;5144184;28;20051;-69
2022/12/02 01:29:52;;;;;;;16.42;5.10;;;5.80;99.90;;;5.60;100.00;101822.25;5145420;28;20471;-67
2022/12/02 01:32:24;;;;;;;14.40;6.18;;;5.80;99.90;;;5.60;100.00;101820.56;5145129;28;20090;-67
2022/12/02 01:34:56;;;;;;;17.10;6.82;;;5.80;99.90;;;5.58;100.00;101824.72;5145049;28;20038;-69
2022/12/02 01:37:28;;;;;;;16.35;6.25;;;5.80;99.90;;;5.57;100.00;101825.53;5145241;28;20094;-69
2022/12/02 01:40:01;;;;;;;16.67;6.07;;;5.80;99.90;;;5.57;100.00;101830.69;5145332;28;20042;-68
2022/12/02 01:42:34;;;;;;;15.00;5.88;;;5.80;99.90;;;5.57;100.00;101828.13;5143694;28;20046;-68
2022/12/02 01:45:10;;;;;;;15.98;5.90;;;5.80;99.90;;;5.58;100.00;101823.84;5143721;28;20046;-68
2022/12/02 01:47:42;;;;;;;14.63;5.65;;;5.80;99.90;;;5.57;100.00;101812.59;5145269;28;20097;-69
2022/12/02 01:50:16;;;;;;;16.58;5.70;;;5.80;99.90;;;5.58;100.00;101806.63;5143560;28;20065;-69
2022/12/02 01:52:48;;;;;;;15.63;5.65;;;5.80;99.90;;;5.60;100.00;101817.06;5143578;28;20407;-69
2022/12/02 01:55:23;;;;;;;15.55;6.13;;;5.80;99.90;;;5.59;100.00;101815.28;5143485;28;20057;-68
2022/12/02 01:57:58;;;;;;;15.13;5.00;;;5.80;99.90;;;5.59;100.00;101821.34;5143876;28;20419;-69
2022/12/02 02:00:30;;;;;;;13.57;5.28;;;5.80;99.90;;;5.57;100.00;101819.47;5159280;28;20467;-68
2022/12/02 02:03:03;;;;;;;15.38;5.82;;;5.80;99.90;;;5.56;100.00;101815.97;5143317;28;20043;-69
2022/12/02 02:05:36;;;;;;;17.45;6.82;;;5.80;99.90;;;5.56;100.00;101817.66;5143175;28;20078;-69
2022/12/02 02:08:12;;;;;;;15.77;6.00;;;5.80;99.90;;;5.56;100.00;101810.81;5143381;28;20051;-68
2022/12/02 02:10:46;;;;;;;14.63;5.93;;;5.80;99.90;;;5.56;100.00;101815.97;5144565;28;20043;-68
2022/12/02 02:13:20;;;;;;;14.77;5.82;;;5.70;99.90;;;5.55;100.00;101813.28;5143065;28;20043;-69
2022/12/02 02:15:53;;;;;;;14.73;5.70;;;5.80;99.90;;;5.55;100.00;101814.19;5144518;28;20570;-69
2022/12/02 02:18:25;;;;;;;16.23;6.20;;;5.70;99.90;;;5.54;100.00;101804.63;5144269;28;20121;-69
2022/12/02 02:20:59;;;;;;;14.27;5.45;;;5.80;99.90;;;5.54;100.00;101794.28;5144311;28;20512;-69
2022/12/02 02:23:33;;;;;;;15.70;6.10;;;5.70;99.90;;;5.53;100.00;101792.47;5142652;28;20496;-69
2022/12/02 02:26:05;;;;;;;13.95;5.57;;;5.70;99.90;;;5.52;100.00;101798.44;5144200;28;20049;-69
2022/12/02 02:28:40;;;;;;;;;;;5.70;99.90;;;5.51;100.00;101791.47;5144743;28;20058;-69
2022/12/02 02:31:12;;;;;;;17.15;5.80;;;5.70;99.90;;;5.53;100.00;101789.88;5142984;28;20350;-69
2022/12/02 02:33:49;;;;;;;13.88;5.65;;;5.70;99.90;;;5.54;100.00;101786.53;5142703;28;20045;-69
2022/12/02 02:36:22;;;;;;;14.38;5.32;;;5.80;99.90;;;5.54;100.00;101796.88;5142922;28;20047;-68
2022/12/02 02:38:56;;;;;;;15.10;5.28;;;5.80;99.90;;;5.57;100.00;101793.59;5144016;28;20043;-69
2022/12/02 02:41:28;;;;;;;14.43;5.35;;;5.80;99.90;;;5.59;100.00;101799.75;5144206;28;20500;-69
2022/12/02 02:44:01;;;;;;;13.02;4.82;;;5.80;99.90;;;5.60;100.00;101786.03;5142447;28;20522;-69
2022/12/02 02:46:33;;;;;;;12.93;5.45;;;5.80;99.90;;;5.57;100.00;101776.38;5144053;28;20046;-69
2022/12/02 02:49:05;;;;;;;14.15;5.57;;;5.80;99.90;;;5.57;100.00;101778.06;5142515;28;20047;-69
2022/12/02 02:51:37;;;;;;;15.10;5.28;;;5.80;99.90;;;5.58;100.00;101772.09;5144164;28;20043;-69
2022/12/02 02:54:11;;;;;;;13.98;5.25;;;5.80;99.90;;;5.59;100.00;101779.06;5143668;28;20070;-69
2022/12/02 02:56:43;;;;;;;13.55;5.72;;;5.80;99.90;;;5.60;100.00;101780.84;5142769;28;20051;-69
2022/12/02 02:59:17;;;;;;;15.45;5.70;;;5.80;99.90;;;5.59;100.00;101769.63;5142589;28;20519;-69
2022/12/02 03:01:52;;;;;;;14.32;5.38;;;5.80;99.90;;;5.59;100.00;101772.19;5142506;28;20042;-66
2022/12/02 03:04:26;;;;;;;14.75;5.63;;;5.80;99.90;;;5.57;100.00;101765.13;5142050;28;20046;-69
2022/12/02 03:06:58;;;;;;;14.40;5.32;;;5.80;99.90;;;5.55;100.00;101765.03;5142685;28;20212;-69
2022/12/02 03:09:33;;;;;;;14.35;6.10;;;5.80;99.90;;;5.55;100.00;101757.28;5142757;28;20507;-69
2022/12/02 03:12:07;;;;;;;17.90;7.05;;;5.80;99.90;;;5.54;100.00;101755.50;5145273;28;20061;-69
2022/12/02 03:14:39;;;;;;;13.40;5.60;;;5.80;99.90;;;5.55;100.00;101757.28;5147872;28;20129;-69
2022/12/02 03:17:11;;;;;;;11.88;5.10;;;5.80;99.90;;;5.56;100.00;101761.66;5162917;28;20142;-66
2022/12/02 03:19:44;;;;;;;14.80;5.82;;;5.70;99.90;;;5.55;100.00;101757.28;5147851;28;20129;-66
2022/12/02 03:22:16;;;;;;;13.68;5.18;;;5.80;99.90;;;5.55;100.00;101757.28;5148099;28;20050;-68
2022/12/02 03:24:50;;;;;;;14.00;5.32;;;5.80;99.90;;;5.54;100.00;101749.38;5147600;28;20061;-69
2022/12/02 03:27:22;;;;;;;16.50;6.90;;;5.80;99.90;;;5.52;100.00;101750.97;5146418;28;20074;-69
2022/12/02 03:29:54;;;;;;;16.75;6.03;;;5.70;99.90;;;5.50;100.00;101748.28;5147669;28;20121;-69
2022/12/02 03:32:27;;;;;;;17.85;6.22;;;5.70;99.90;;;5.48;100.00;101744.72;5147534;28;20046;-68
2022/12/02 03:35:00;;;;;;;14.23;5.40;;;5.70;99.90;;;5.48;100.00;101743.78;5147449;28;20047;-69
2022/12/02 03:37:32;;;;;;;14.68;6.03;;;5.70;99.90;;;5.48;100.00;101738.63;5147589;28;20129;-68
2022/12/02 03:40:08;;;;;;;13.68;5.50;;;5.70;99.90;;;5.47;100.00;101737.72;5147446;28;20070;-68
2022/12/02 03:42:40;;;;;;;13.90;5.78;;;5.70;99.90;;;5.48;100.00;101730.84;5147363;28;20081;-69
2022/12/02 03:45:13;;;;;;;14.88;5.97;;;5.70;99.90;;;5.49;100.00;101740.44;5147330;28;20049;-66
2022/12/02 03:47:45;;;;;;;15.45;6.20;;;5.70;99.90;;;5.48;100.00;101729.19;5147196;28;20054;-67
2022/12/02 03:50:18;;;;;;;15.82;6.18;;;5.70;99.90;;;5.49;100.00;101737.84;5147331;28;20049;-69
2022/12/02 03:52:50;;;;;;;15.38;6.13;;;5.70;99.90;;;5.48;100.00;101736.97;5147297;28;20053;-69
2022/12/02 03:55:24;;;;;;;20.10;6.72;;;5.70;99.90;;;5.46;100.00;101720.41;5147365;28;20047;-69
2022/12/02 03:58:03;;;;;;;16.98;6.10;;;5.70;99.90;;;5.43;100.00;101720.22;5147294;28;20389;-69
2022/12/02 04:00:36;;;;;;;17.85;6.40;;;5.70;99.90;;;5.41;100.00;101708.84;5147176;28;20051;-69
2022/12/02 04:03:08;;;;;;;20.13;7.28;;;5.70;99.90;;;5.41;100.00;101711.44;5147087;28;20040;-69
2022/12/02 04:05:40;;;;;;;19.02;6.90;;;5.60;99.90;;;5.40;100.00;101713.13;5146901;28;20157;-69
2022/12/02 04:08:12;;;;;;;20.63;6.60;;;5.60;99.90;;;5.40;100.00;101710.53;5147052;28;20424;-69
2022/12/02 04:10:46;;;;;;;18.83;6.80;;;5.60;99.90;;;5.42;100.00;101705.50;5145751;28;20518;-69
2022/12/02 04:13:18;;;;;;;18.58;6.90;;;5.60;99.90;;;5.41;100.00;101696.84;5146864;28;20117;-68
2022/12/02 04:15:50;;;;;;;21.15;6.85;;;5.60;99.90;;;5.41;100.00;101690.72;5145572;28;20069;-67
2022/12/02 04:18:22;;;;;;;17.88;7.18;;;5.60;99.90;;;5.42;100.00;101692.56;5146809;28;20523;-67
2022/12/02 04:20:55;;;;;;;20.30;6.57;;;5.60;99.90;;;5.43;100.00;101689.19;5146766;28;20566;-69
2022/12/02 04:23:27;;;;;;;16.65;6.55;;;5.70;99.90;;;5.44;100.00;101690.97;5146624;28;20054;-69
2022/12/02 04:26:00;;;;;;;20.63;6.78;;;5.70;99.90;;;5.44;100.00;101685.78;5146769;28;20522;-68
2022/12/02 04:28:32;;;;;;;20.85;7.22;;;5.70;99.90;;;5.44;100.00;101680.63;5147004;28;20129;-69
2022/12/02 04:31:05;;;;;;;17.63;7.00;;;5.70;99.90;;;5.44;100.00;101688.38;5146822;28;20054;-69
2022/12/02 04:33:37;;;;;;;19.92;6.90;;;5.70;99.90;;;5.44;100.00;101685.78;5146812;28;20034;-69
2022/12/02 04:36:09;;;;;;;19.67;6.95;;;5.70;99.90;;;5.43;100.00;101684.00;5146778;28;20049;-67
2022/12/02 04:38:41;;;;;;;17.20;6.70;;;5.70;99.90;;;5.41;100.00;101680.41;5146796;28;20047;-67
2022/12/02 04:41:15;;;;;;;19.60;7.70;;;5.70;99.90;;;5.40;100.00;101683.78;5146836;28;20555;-68
2022/12/02 04:43:47;;;;;;;20.90;7.68;;;5.70;99.90;;;5.39;100.00;101679.41;5146542;28;20043;-69
2022/12/02 04:46:19;;;;;;;22.20;8.18;;;5.60;99.90;;;5.37;100.00;101679.31;5146689;28;20054;-69
2022/12/02 04:48:51;;;;;;;20.75;7.55;;;5.60;99.90;;;5.38;100.00;101669.84;5146732;28;20527;-69
2022/12/02 04:51:23;;;;;;;19.77;7.03;;;5.60;99.90;;;5.36;100.00;101676.63;5146592;28;20053;-69
2022/12/02 04:53:55;;;;;;;19.05;7.50;;;5.60;99.90;;;5.35;100.00;101680.00;5146597;28;20093;-69
2022/12/02 04:56:28;;;;;;;26.20;7.57;;;5.60;99.90;;;5.35;100.00;101680.00;5145433;28;20154;-69
2022/12/02 04:59:01;;;;;;;20.73;7.72;;;5.60;99.90;;;5.34;100.00;101684.25;5146390;28;20077;-68
2022/12/02 05:01:33;;;;;;;18.50;6.90;;;5.60;99.90;;;5.32;100.00;101677.19;5146127;28;20069;-68
2022/12/02 05:04:05;;;;;;;23.98;7.57;;;5.60;99.90;;;5.33;100.00;101681.56;5146667;28;20035;-68
2022/12/02 05:06:37;;;;;;;20.45;8.23;;;5.60;99.90;;;5.31;100.00;101680.56;5146036;28;20051;-67
2022/12/02 05:09:09;;;;;;;18.58;7.25;;;5.60;99.90;;;5.31;100.00;101673.69;5145983;28;20054;-66
2022/12/02 05:11:42;;;;;;;23.30;8.05;;;5.60;99.90;;;5.33;100.00;101681.56;5145849;28;20069;-65
2022/12/02 05:14:14;;;;;;;21.30;7.38;;;5.60;99.90;;;5.34;100.00;101667.84;5160543;28;20061;-69
2022/12/02 05:16:46;;;;;;;18.00;6.45;;;5.60;99.90;;;5.33;100.00;101669.53;5145916;28;20420;-69
2022/12/02 05:19:18;;;;;;;21.83;6.95;;;5.60;99.90;;;5.35;100.00;101674.81;5145699;28;20057;-69
2022/12/02 05:21:51;;;;;;;19.13;6.15;;;5.60;99.90;;;5.36;100.00;101667.16;5145950;28;20398;-69
2022/12/02 05:24:23;;;;;;;17.10;6.80;;;5.60;99.90;;;5.38;100.00;101667.28;5144143;28;20039;-69
2022/12/02 05:26:58;;;;;;;21.92;7.75;;;5.60;99.90;;;5.38;100.00;101667.28;5145733;28;20054;-70
2022/12/02 05:29:30;;;;;;;19.98;6.72;;;5.60;99.90;;;5.39;100.00;101661.28;5145786;28;20049;-68
2022/12/02 05:32:02;;;;;;;22.33;8.80;;;5.60;99.90;;;5.40;100.00;101663.97;5145390;28;20070;-68
2022/12/02 05:34:35;;;;;;;24.48;7.53;;;5.60;99.90;;;5.37;100.00;101668.06;5144999;28;20047;-67
2022/12/02 05:37:07;;;;;;;22.52;7.65;;;5.60;99.90;;;5.35;100.00;101664.50;5145322;28;20463;-69
2022/12/02 05:39:40;;;;;;;24.80;7.00;;;5.60;99.90;;;5.35;100.00;101664.50;5145335;28;20403;-69
2022/12/02 05:42:14;;;;;;;24.55;8.40;;;5.60;99.90;;;5.32;100.00;101662.56;5144321;28;20054;-70
2022/12/02 05:44:47;;;;;;;21.20;7.65;;;5.60;99.90;;;5.33;100.00;101660.88;5144937;28;20038;-66
2022/12/02 05:47:19;;;;;;;21.90;6.70;;;5.60;99.90;;;5.31;100.00;101658.19;5144835;28;20122;-66
2022/12/02 05:49:53;;;;;;;26.25;8.50;;;5.60;99.90;;;5.28;100.00;101655.41;5145078;28;20125;-68
2022/12/02 05:52:28;;;;;;;22.13;8.43;;;5.60;99.90;;;5.25;100.00;101656.88;5145112;28;20058;-69
2022/12/02 05:55:08;;;;;;;27.40;8.77;;;5.50;99.90;;;5.22;100.00;101652.41;5144898;28;20470;-70
2022/12/02 05:57:41;;;;;;;22.83;9.00;;;5.50;99.90;;;5.20;100.00;101648.78;5145221;28;20121;-69
2022/12/02 06:00:18;;;;;;;22.33;7.53;;;5.50;99.90;;;5.21;100.00;101654.84;5144905;28;20042;-67
2022/12/02 06:02:53;;;;;;;26.85;8.88;;;5.50;99.90;;;5.20;100.00;101653.94;5143689;28;20051;-68
2022/12/02 06:05:27;;;;;;;22.50;7.50;;;5.50;99.90;;;5.22;100.00;101661.84;5143364;28;20054;-69
2022/12/02 06:08:15;;;;;;;27.90;8.30;;;5.50;99.90;;;5.20;100.00;101651.38;5143599;28;20066;-70
2022/12/02 06:10:50;;;;;;;25.80;8.18;;;5.40;99.90;;;5.22;100.00;101659.25;5144705;28;20109;-69
2022/12/02 06:13:28;;;;;;;24.55;7.38;;;5.50;99.90;;;5.22;100.00;101667.91;5144628;28;20068;-69
2022/12/02 06:16:01;;;;;;;25.42;8.57;;;5.50;99.90;;;5.24;100.00;101665.41;5169570;23;20046;-70
2022/12/02 06:18:36;;;;;;;25.65;7.70;;;5.50;99.90;;;5.25;100.00;101651.69;5141681;28;20043;-69
2022/12/02 06:21:16;;;;;;;24.40;7.75;;;5.50;99.90;;;5.27;100.00;101644.94;5143498;28;20046;-69
2022/12/02 06:23:52;;;;;;;23.65;8.60;;;5.50;99.90;;;5.28;100.00;101641.56;5143588;28;20039;-65
2022/12/02 06:26:25;;;;;;;24.73;6.90;;;5.50;99.90;;;5.27;100.00;101645.81;5144220;28;20129;-65
2022/12/02 06:29:02;;;;;;;22.48;7.38;;;5.50;99.90;;;5.29;100.00;101643.38;5144631;28;20053;-62
2022/12/02 06:31:37;;;;;;;22.75;7.53;;;5.50;99.90;;;5.29;100.00;101641.69;5144091;28;20047;-63
2022/12/02 06:34:35;;;;;;;21.70;8.23;;;5.50;99.90;;;5.29;100.00;101640.78;5143694;28;20094;-61
2022/12/02 06:37:14;;;;;;;22.42;7.40;;;5.60;99.90;;;5.31;100.00;101632.34;5140432;28;20043;-66
2022/12/02 06:39:49;;;;;;;24.77;7.82;;;5.50;99.90;;;5.32;100.00;101638.41;5116456;28;20062;-64
2022/12/02 06:42:35;;;;;;;23.45;8.40;;;5.60;99.90;;;5.32;100.00;101640.97;5125513;29;20154;-66
2022/12/02 06:45:24;;;;;;;23.15;7.38;;;5.60;99.90;;;5.33;100.00;101646.25;5124513;28;20043;-66
2022/12/02 06:48:29;;;;;;;22.67;7.90;;;5.60;99.90;;;5.35;100.00;101644.69;5123076;28;20067;-64
2022/12/02 06:51:13;;;;;;;26.17;8.95;;;5.60;99.90;;;5.36;100.00;101640.41;5133554;28;20053;-65
2022/12/02 06:53:46;;;;;;;22.73;8.25;;;5.60;99.90;;;5.38;100.00;101646.59;5143214;28;20046;-65
2022/12/02 06:56:24;;;;;;;23.50;8.13;;;5.60;99.90;;;5.37;100.00;101637.03;5143664;28;20050;-65
2022/12/02 06:59:01;;;;;;;23.70;8.32;;;5.60;99.90;;;5.38;100.00;101633.66;5143710;28;20419;-66
2022/12/02 07:01:40;;;;;;;25.02;7.32;;;5.60;99.90;;;5.36;100.00;101638.72;5128757;28;20393;-64
2022/12/02 07:04:43;;;;;;;25.05;7.97;;;5.60;99.90;;;5.36;100.00;101637.84;5139464;28;20039;-57
2022/12/02 07:07:21;;;;;;;27.98;8.70;;;5.60;99.90;;;5.36;100.00;101625.78;5131943;28;20102;-57
2022/12/02 07:09:56;;;;;;;20.58;7.57;;;5.60;99.90;;;5.36;100.00;101635.25;5142063;28;20054;-57
2022/12/02 07:12:36;;;;;;;27.25;8.93;;;5.60;99.90;;;5.36;100.00;101635.25;5143298;28;20047;-57
2022/12/02 07:15:26;;;;;;;27.05;8.48;;;5.60;99.90;;;5.35;100.00;101633.47;5142508;28;20511;-57
2022/12/02 07:18:09;;;;;;;28.52;9.30;;;5.60;99.90;;;5.35;100.00;101633.47;5109819;28;20456;-57
2022/12/02 07:20:45;;;;;;;25.98;7.70;;;5.60;99.90;;;5.35;100.00;101638.63;5123451;29;20070;-57
2022/12/02 07:23:21;;;;;;;24.55;7.88;;;5.60;99.90;;;5.34;100.00;101637.69;5131942;28;20047;-58
2022/12/02 07:25:55;;;;;;;25.95;8.23;;;5.60;99.90;;;5.36;100.00;101645.59;5128984;28;20043;-58
2022/12/02 07:28:32;;;;;;;27.17;8.80;;;5.60;99.90;;;5.36;100.00;101638.72;5123361;29;20122;-58
2022/12/02 07:31:24;;;;;;;26.02;9.45;;;5.60;99.90;;;5.34;100.00;101636.81;5130255;28;20042;-57
2022/12/02 07:33:57;;;;;;;25.48;9.45;;;5.60;99.90;;;5.33;100.00;101640.19;5127990;28;20039;-57
2022/12/02 07:36:29;;;;;;;26.13;8.38;;;5.60;99.90;;;5.31;100.00;101639.19;5122786;29;20047;-58
2022/12/02 07:39:01;;;;;;;30.45;8.82;;;5.60;99.90;;;5.31;100.00;101641.78;5122758;29;20051;-59
2022/12/02 07:41:34;;;;;;;31.52;9.55;;;5.50;99.90;;;5.31;100.00;101641.78;5137117;28;20076;-57
2022/12/02 07:44:06;;;;;;;24.77;7.93;;;5.60;99.90;;;5.31;100.00;101641.78;5122328;29;20043;-55
2022/12/02 07:46:38;;;;;;;27.63;8.32;;;5.50;99.90;;;5.30;100.00;101640.00;5123417;29;20069;-57
2022/12/02 07:49:12;;;;;;;28.65;8.73;;;5.50;99.90;;;5.30;100.00;101629.66;5122808;29;20435;-56
2022/12/02 07:51:44;;;;;;;29.92;8.43;;;5.50;99.90;;;5.29;100.00;101631.34;5123008;29;20531;-57
2022/12/02 07:54:16;;;;;;;28.23;9.55;;;5.50;99.90;;;5.28;100.00;101626.97;5122573;29;20044;-57
2022/12/02 07:56:48;;;;;;;28.65;8.82;;;5.50;99.90;;;5.30;100.00;101630.53;5122757;28;20085;-57
2022/12/02 07:59:20;;;;;;;28.80;9.70;;;5.50;99.90;;;5.31;100.00;101622.00;5134342;28;20070;-56
2022/12/02 08:01:52;;;;;;;28.25;9.40;;;5.50;99.90;;;5.32;100.00;101623.78;5125902;28;20496;-57
2022/12/02 08:04:26;;;;;;;33.20;10.07;;;5.50;99.90;;;5.33;100.00;101629.84;5132197;28;20087;-56
2022/12/02 08:06:58;;;;;;;26.95;9.30;;;5.60;99.90;;;5.33;100.00;101622.09;5125422;28;20065;-57
2022/12/02 08:09:30;;;;;;;32.58;10.95;;;5.60;99.90;;;5.33;100.00;101615.22;5126615;28;20043;-57
2022/12/02 08:12:02;;;;;;;26.20;8.52;;;5.60;99.90;;;5.33;100.00;101625.56;5126940;28;20436;-57
2022/12/02 08:14:34;;;;;;;30.98;10.18;;;5.60;99.90;;;5.33;100.00;101627.25;5125782;28;20054;-56
2022/12/02 08:17:06;;;;;;;27.65;8.95;;;5.60;99.90;;;5.34;100.00;101626.47;5133825;28;20057;-55
2022/12/02 08:19:40;;;;;;;26.05;8.65;;;5.60;99.90;;;5.34;100.00;101617.00;5146326;28;20050;-55
2022/12/02 08:22:12;;;;;;;29.95;10.07;;;5.60;99.90;;;5.35;100.00;101617.94;5146084;28;20435;-55
2022/12/02 08:24:44;;;;;;;28.20;9.57;;;5.60;99.90;;;5.35;100.00;101617.94;5129774;28;20393;-55
2022/12/02 08:27:16;;;;;;;31.23;9.40;;;5.60;99.90;;;5.35;100.00;101617.94;5122674;28;20054;-55
2022/12/02 08:29:49;;;;;;;27.98;9.85;;;5.50;99.90;;;5.34;100.00;101613.53;5112141;28;20055;-55
2022/12/02 08:32:21;;;;;;;25.65;8.65;;;5.60;99.90;;;5.34;100.00;101616.13;5129518;28;20051;-55
2022/12/02 08:34:55;;;;;;;31.15;10.32;;;5.60;99.90;;;5.34;100.00;101613.53;5125113;29;20043;-56
2022/12/02 08:37:28;;;;;;;27.25;9.95;;;5.60;99.90;;;5.34;100.00;101616.13;5119932;28;20040;-56
2022/12/02 08:40:00;;;;;;;31.50;10.07;;;5.60;99.90;;;5.33;100.00;101609.16;5129030;28;20425;-56
2022/12/02 08:42:33;;;;;;;25.17;8.60;;;5.60;99.90;;;5.33;100.00;101614.34;5105940;29;20126;-55
2022/12/02 08:45:06;;;;;;;22.60;7.57;;;5.60;99.90;;;5.54;100.00;101614.91;5105138;29;20047;-58
2022/12/02 08:47:38;;;;;;;31.52;10.00;;;5.80;99.90;;;6.10;100.00;101608.38;5105651;29;20516;-62
2022/12/02 08:50:12;;;;;;;28.45;8.82;;;6.30;99.90;;;6.20;100.00;101612.47;5105702;29;20050;-61
2022/12/02 08:52:44;;;;;;;40.50;11.80;;;6.40;99.90;;;6.23;100.00;101613.56;5105681;29;20138;-62
2022/12/02 08:55:16;;;;;;;34.50;10.52;;;6.50;99.90;;;6.28;100.00;101612.97;5110256;28;20043;-57
2022/12/02 08:57:48;;;;;;;29.02;9.98;;;6.50;99.90;;;6.24;100.00;101606.69;5125488;28;20047;-56
2022/12/02 09:00:21;;;;;;;33.17;9.98;;;6.50;99.90;;;6.16;100.00;101611.38;5126432;28;20054;-56
2022/12/02 09:02:53;;;;;;;28.65;8.80;;;6.40;99.90;;;6.09;100.00;101614.34;5145317;28;20047;-56
2022/12/02 09:05:26;;;;;;;26.33;9.60;;;6.30;99.90;;;6.03;100.00;101621.72;5144459;28;20046;-56
2022/12/02 09:07:59;;;;;;;29.30;9.10;;;6.30;99.90;;;5.95;100.00;101622.91;5133637;28;20051;-56
2022/12/02 09:10:31;;;;;;;27.27;8.63;;;6.20;99.90;;;5.88;100.00;101618.97;5122589;28;20043;-56
2022/12/02 09:13:03;;;;;;;27.42;9.43;;;6.10;99.90;;;5.84;100.00;101618.66;5125030;28;20051;-56
2022/12/02 09:15:36;;;;;;;22.17;8.00;;;6.10;99.90;;;5.82;100.00;101622.84;5124168;28;20039;-56
2022/12/02 09:18:08;;;;;;;27.83;9.27;;;6.00;99.90;;;5.78;100.00;101615.66;5124924;28;20558;-57
2022/12/02 09:20:41;;;;;;;31.63;10.20;;;6.00;99.90;;;6.31;100.00;101615.75;5124968;28;20039;-57
2022/12/02 09:23:14;;;;;;;33.15;9.98;;;6.60;99.90;;;6.38;100.00;101621.41;5125420;28;20051;-57
2022/12/02 09:25:46;;;;;;;27.27;8.98;;;6.60;99.90;;;6.30;100.00;101619.13;5124639;29;20043;-58
2022/12/02 09:28:20;;;;;;;26.48;9.25;;;6.60;99.90;;;6.16;100.00;101616.53;5125098;28;20043;-56
2022/12/02 09:30:53;;;;;;;28.73;8.90;;;6.50;99.90;;;6.08;100.00;101622.91;5123925;29;20043;-57
2022/12/02 09:33:25;;;;;;;26.02;9.48;;;6.40;99.90;;;6.00;100.00;101618.94;5124858;29;20409;-55
2022/12/02 09:35:58;;;;;;;30.35;10.10;;;6.30;99.90;;;5.92;100.00;101615.81;5119643;28;20098;-56
2022/12/02 09:38:31;;;;;;;25.08;9.30;;;6.20;99.90;;;5.87;100.00;101621.47;5125061;28;20051;-58
2022/12/02 09:41:03;;;;;;;30.20;9.57;;;6.10;99.90;;;5.84;100.00;101616.06;5124587;28;20051;-58
2022/12/02 09:43:37;;;;;;;28.23;8.52;;;6.10;99.90;;;5.81;100.00;101613.28;5124521;28;20424;-57
2022/12/02 09:46:09;;;;;;;30.63;10.32;;;6.00;99.90;;;5.79;100.00;101612.28;5124160;28;20083;-57
2022/12/02 09:48:41;;;;;;;28.55;8.50;;;6.00;99.90;;;5.79;100.00;101610.59;5124162;28;20051;-56
2022/12/02 09:51:15;;;;;;;33.10;10.98;;;6.00;99.90;;;5.76;100.00;101612.09;5124093;28;20102;-57
2022/12/02 09:53:48;;;;;;;30.17;9.68;;;5.90;99.90;;;5.73;100.00;101613.66;5123842;29;20074;-56
2022/12/02 09:56:22;;;;;;;25.15;8.55;;;5.90;99.90;;;5.75;100.00;101610.28;5124126;28;20050;-57
2022/12/02 09:58:56;;;;;;;26.10;9.07;;;5.90;99.90;;;5.77;100.00;101613.88;5124031;28;20051;-57
2022/12/02 10:01:28;;;;;;;26.08;8.27;;;6.00;99.90;;;5.78;100.00;101610.50;5119672;28;20047;-58
2022/12/02 10:04:00;;;;;;;25.90;9.38;;;5.90;99.90;;;5.80;100.00;101606.31;5123815;28;20051;-58
2022/12/02 10:06:33;;;;;;;29.73;9.25;;;6.00;99.90;;;5.81;100.00;101595.19;5124035;28;20047;-57
2022/12/02 10:09:15;;;;;;;27.50;8.90;;;6.00;99.90;;;5.81;100.00;101601.25;5122492;29;20547;-58
2022/12/02 10:11:47;;;;;;;27.67;8.75;;;6.00;99.90;;;5.85;100.00;101604.91;5120318;28;20169;-57
2022/12/02 10:14:19;;;;;;;24.60;8.75;;;6.00;99.90;;;5.86;100.00;101598.94;5118835;28;20051;-57
2022/12/02 10:16:52;;;;;;;28.48;9.55;;;6.00;99.90;;;5.90;100.00;101600.97;5123754;28;20055;-57
2022/12/02 10:19:25;;;;;;;31.20;9.82;;;6.10;99.90;;;5.90;100.00;101595.78;5123857;29;20088;-56
2022/12/02 10:21:58;;;;;;;28.92;9.77;;;6.10;99.90;;;5.93;100.00;101596.00;5123917;28;20058;-57
2022/12/02 10:24:39;;;;;;;27.33;9.13;;;6.10;99.90;;;5.96;100.00;101585.88;5123367;29;20470;-57
2022/12/02 10:27:25;;;;;;;27.10;8.70;;;6.10;99.90;;;5.98;100.00;101586.84;5123963;28;20055;-57
2022/12/02 10:30:16;;;;;;;28.95;9.43;;;6.20;99.90;;;5.99;100.00;101581.78;5123652;28;20456;-57
2022/12/02 10:32:59;;;;;;;28.05;9.05;;;6.20;99.90;;;6.02;100.00;101581.09;5123887;28;20047;-57
2022/12/02 10:35:45;;;;;;;31.58;9.25;;;6.20;99.90;;;6.03;100.00;101582.88;5122591;28;20043;-56
2022/12/02 10:38:36;;;;;;;23.95;7.55;;;6.20;99.90;;;6.05;100.00;101585.56;5119608;28;20482;-57
2022/12/02 10:41:21;;;;;;;31.08;9.88;;;6.20;99.90;;;6.08;100.00;101586.69;5116541;28;20378;-57
2022/12/02 10:44:12;;;;;;;28.63;9.15;;;6.20;99.90;;;6.08;100.00;101578.91;5113749;29;20122;-57
2022/12/02 10:46:46;;;;;;;27.83;8.20;;;6.30;99.90;;;6.08;100.00;101576.31;5113853;29;20125;-56